createdAt,value
2022-12-03T00:05:49.180Z,93.24
2022-12-03T00:15:50.879Z,93.30
2022-12-03T00:25:52.357Z,93.20
2022-12-03T00:35:53.704Z,92.97
2022-12-03T00:45:55.091Z,92.89
2022-12-03T00:55:56.418Z,93.43
2022-12-03T01:05:57.811Z,93.00
2022-12-03T01:15:59.195Z,93.03
2022-12-03T01:26:00.581Z,92.70
2022-12-03T01:36:01.961Z,93.25
2022-12-03T01:46:04.092Z,93.28
2022-12-03T01:56:05.916Z,93.31
2022-12-03T02:06:16.406Z,93.31
2022-12-03T02:16:17.914Z,93.31
2022-12-03T02:26:19.404Z,93.49
2022-12-03T02:36:21.147Z,93.08
2022-12-03T02:46:22.532Z,93.06
2022-12-03T02:56:28.915Z,93.58
2022-12-03T03:06:30.844Z,93.68
2022-12-03T03:16:34.422Z,93.24
2022-12-03T03:26:36.193Z,93.73
2022-12-03T03:36:38.159Z,93.26
2022-12-03T03:46:40.319Z,93.10
2022-12-03T03:56:41.919Z,93.47
2022-12-03T04:06:43.270Z,93.53
2022-12-03T04:16:44.647Z,93.60
2022-12-03T04:27:04.459Z,93.14
2022-12-03T04:37:05.912Z,93.39
2022-12-03T04:47:21.415Z,93.71
2022-12-03T04:57:22.760Z,92.89
2022-12-03T05:07:24.186Z,93.28
2022-12-03T05:17:25.598Z,93.11
2022-12-03T05:27:27.047Z,93.09
2022-12-03T05:37:28.412Z,92.54
2022-12-03T05:47:29.740Z,92.55
2022-12-03T05:57:31.112Z,92.74
2022-12-03T06:07:32.483Z,92.34
2022-12-03T06:17:33.856Z,92.47
2022-12-03T06:27:35.388Z,92.31
2022-12-03T06:37:36.716Z,92.47
2022-12-03T06:47:53.096Z,92.56
2022-12-03T06:57:54.451Z,91.96
2022-12-03T07:07:55.810Z,92.24
2022-12-03T07:17:57.184Z,92.38
2022-12-03T07:27:58.528Z,92.39
2022-12-03T07:37:59.883Z,92.36
2022-12-03T07:48:01.223Z,92.34
2022-12-03T07:58:02.916Z,91.78
2022-12-03T08:08:04.597Z,92.18
2022-12-03T08:18:32.668Z,91.74
2022-12-03T08:28:34.090Z,91.47
2022-12-03T08:38:35.458Z,91.52
2022-12-03T08:48:39.271Z,91.53
2022-12-03T08:58:44.560Z,91.59
2022-12-03T09:08:46.175Z,91.61
2022-12-03T09:18:47.532Z,90.81
2022-12-03T09:28:48.966Z,90.90
2022-12-03T09:38:50.335Z,91.30
2022-12-03T09:48:51.986Z,91.11
2022-12-03T09:58:53.478Z,90.70
2022-12-03T10:08:55.574Z,90.53
2022-12-03T10:19:00.466Z,90.60
2022-12-03T10:29:01.800Z,90.19
2022-12-03T10:39:15.175Z,90.86
2022-12-03T10:49:18.653Z,90.84
2022-12-03T10:59:23.301Z,90.18
2022-12-03T11:09:33.287Z,90.38
2022-12-03T11:19:46.722Z,90.36
2022-12-03T11:29:51.133Z,90.37
2022-12-03T11:39:53.142Z,89.96
2022-12-03T11:49:55.274Z,90.40
2022-12-03T12:00:03.250Z,90.47
2022-12-03T12:10:05.355Z,90.44
2022-12-03T12:20:26.588Z,89.87
2022-12-03T12:30:27.948Z,90.12
2022-12-03T12:40:31.229Z,90.47
2022-12-03T12:50:33.156Z,89.95
2022-12-03T13:00:34.529Z,89.52
2022-12-03T13:10:40.735Z,89.48
2022-12-03T13:20:42.343Z,89.33
2022-12-03T13:30:43.708Z,89.22
2022-12-03T13:40:45.133Z,89.46
2022-12-03T13:50:46.533Z,89.96
2022-12-03T14:00:47.968Z,89.52
2022-12-03T14:10:49.503Z,89.78
2022-12-03T14:20:51.076Z,89.32
2022-12-03T14:30:52.436Z,89.67
2022-12-03T14:40:53.831Z,89.59
2022-12-03T14:50:55.181Z,89.57
2022-12-03T15:00:56.541Z,90.19
2022-12-03T15:10:57.922Z,90.02
2022-12-03T15:20:59.263Z,90.60
2022-12-03T15:31:01.054Z,90.70
2022-12-03T15:41:40.695Z,90.26
2022-12-03T15:51:42.088Z,90.20
2022-12-03T16:01:43.477Z,90.61
2022-12-03T16:11:44.915Z,90.73
2022-12-03T16:21:46.633Z,90.78
2022-12-03T16:31:47.995Z,90.16
2022-12-03T16:41:49.334Z,90.18
2022-12-03T16:51:50.691Z,90.33
2022-12-03T17:01:52.084Z,90.22
2022-12-03T17:11:53.591Z,90.46
2022-12-03T17:21:54.951Z,89.99
2022-12-03T17:31:56.342Z,89.91
2022-12-03T17:41:57.777Z,90.82
2022-12-03T17:51:59.308Z,90.49
2022-12-03T18:02:00.727Z,90.42
2022-12-03T18:12:02.074Z,90.22
2022-12-03T18:22:03.464Z,90.07
2022-12-03T18:32:25.791Z,90.55
2022-12-03T18:42:29.426Z,90.48
2022-12-03T18:52:30.787Z,90.64
2022-12-03T19:03:01.051Z,90.55
2022-12-03T19:12:53.415Z,90.39
2022-12-03T19:22:54.735Z,90.74
2022-12-03T19:32:56.117Z,90.90
2022-12-03T19:42:57.435Z,90.44
2022-12-03T19:52:58.779Z,90.85
2022-12-03T20:03:00.272Z,91.04
2022-12-03T20:13:01.978Z,90.71
2022-12-03T20:23:03.389Z,90.95
2022-12-03T20:33:04.776Z,90.51
2022-12-03T20:43:06.086Z,91.05
2022-12-03T20:53:24.292Z,90.64
2022-12-03T21:03:26.648Z,90.69
2022-12-03T21:13:32.308Z,91.61
2022-12-03T21:23:35.015Z,91.09
2022-12-03T21:33:37.066Z,91.35
2022-12-03T21:43:38.477Z,91.46
2022-12-03T21:53:43.595Z,91.32
2022-12-03T22:03:45.730Z,91.10
2022-12-03T22:13:47.742Z,91.56
2022-12-03T22:23:49.678Z,91.38
2022-12-03T22:33:51.457Z,91.43
2022-12-03T22:43:52.916Z,91.69
2022-12-03T22:53:55.664Z,91.37
2022-12-03T23:03:57.482Z,91.32
2022-12-03T23:13:59.122Z,91.29
2022-12-03T23:24:02.611Z,91.58
2022-12-03T23:34:04.189Z,91.80
2022-12-03T23:44:05.636Z,91.45
2022-12-03T23:54:07.103Z,91.43
